sensor_id;sensor_type;location;lat;lon;timestamp;P1;durP1;ratioP1;P2;durP2;ratioP2
18302;SDS011;9277;37.980;23.748;2023-04-24T00:01:40;9.90;;;5.53;;
18302;SDS011;9277;37.980;23.748;2023-04-24T00:04:07;10.25;;;5.78;;
18302;SDS011;9277;37.980;23.748;2023-04-24T00:06:36;8.38;;;5.18;;
18302;SDS011;9277;37.980;23.748;2023-04-24T00:09:03;16.75;;;6.40;;
18302;SDS011;9277;37.980;23.748;2023-04-24T00:11:32;11.68;;;5.70;;
18302;SDS011;9277;37.980;23.748;2023-04-24T00:13:59;7.85;;;5.47;;
18302;SDS011;9277;37.980;23.748;2023-04-24T00:16:25;13.68;;;5.30;;
18302;SDS011;9277;37.980;23.748;2023-04-24T00:18:53;11.65;;;5.10;;
18302;SDS011;9277;37.980;23.748;2023-04-24T00:21:21;8.50;;;4.88;;
18302;SDS011;9277;37.980;23.748;2023-04-24T00:23:50;11.10;;;4.43;;
18302;SDS011;9277;37.980;23.748;2023-04-24T00:26:18;10.80;;;3.97;;
18302;SDS011;9277;37.980;23.748;2023-04-24T00:28:46;8.45;;;4.18;;
18302;SDS011;9277;37.980;23.748;2023-04-24T00:31:13;8.75;;;4.43;;
18302;SDS011;9277;37.980;23.748;2023-04-24T00:33:40;11.68;;;4.75;;
18302;SDS011;9277;37.980;23.748;2023-04-24T00:36:07;8.35;;;4.18;;
18302;SDS011;9277;37.980;23.748;2023-04-24T00:38:33;6.95;;;4.32;;
18302;SDS011;9277;37.980;23.748;2023-04-24T00:41:00;11.32;;;4.15;;
18302;SDS011;9277;37.980;23.748;2023-04-24T00:43:27;10.70;;;5.65;;
18302;SDS011;9277;37.980;23.748;2023-04-24T00:45:55;10.93;;;4.57;;
18302;SDS011;9277;37.980;23.748;2023-04-24T00:48:23;9.73;;;4.50;;
18302;SDS011;9277;37.980;23.748;2023-04-24T00:50:50;8.35;;;4.72;;
18302;SDS011;9277;37.980;23.748;2023-04-24T00:53:17;8.13;;;4.57;;
18302;SDS011;9277;37.980;23.748;2023-04-24T00:55:43;10.60;;;5.00;;
18302;SDS011;9277;37.980;23.748;2023-04-24T00:58:10;16.60;;;5.15;;
18302;SDS011;9277;37.980;23.748;2023-04-24T01:00:37;8.50;;;4.35;;
18302;SDS011;9277;37.980;23.748;2023-04-24T01:03:06;12.38;;;4.80;;
18302;SDS011;9277;37.980;23.748;2023-04-24T01:05:33;6.72;;;4.35;;
18302;SDS011;9277;37.980;23.748;2023-04-24T01:08:00;13.77;;;4.55;;
18302;SDS011;9277;37.980;23.748;2023-04-24T01:10:27;9.65;;;4.85;;
18302;SDS011;9277;37.980;23.748;2023-04-24T01:12:56;10.05;;;4.65;;
18302;SDS011;9277;37.980;23.748;2023-04-24T01:15:23;10.50;;;4.95;;
18302;SDS011;9277;37.980;23.748;2023-04-24T01:17:49;10.93;;;4.78;;
18302;SDS011;9277;37.980;23.748;2023-04-24T01:20:18;7.97;;;4.78;;
18302;SDS011;9277;37.980;23.748;2023-04-24T01:22:47;8.80;;;4.63;;
18302;SDS011;9277;37.980;23.748;2023-04-24T01:25:14;13.75;;;4.80;;
18302;SDS011;9277;37.980;23.748;2023-04-24T01:27:41;10.68;;;5.03;;
18302;SDS011;9277;37.980;23.748;2023-04-24T01:30:08;7.20;;;4.65;;
18302;SDS011;9277;37.980;23.748;2023-04-24T01:32:35;9.77;;;4.65;;
18302;SDS011;9277;37.980;23.748;2023-04-24T01:35:03;5.95;;;4.20;;
18302;SDS011;9277;37.980;23.748;2023-04-24T01:37:30;7.85;;;5.18;;
18302;SDS011;9277;37.980;23.748;2023-04-24T01:39:59;12.30;;;5.65;;
18302;SDS011;9277;37.980;23.748;2023-04-24T01:42:26;9.48;;;4.40;;
18302;SDS011;9277;37.980;23.748;2023-04-24T01:44:52;11.60;;;5.18;;
18302;SDS011;9277;37.980;23.748;2023-04-24T01:47:20;8.38;;;5.13;;
18302;SDS011;9277;37.980;23.748;2023-04-24T01:49:47;9.68;;;4.80;;
18302;SDS011;9277;37.980;23.748;2023-04-24T01:52:14;8.30;;;4.55;;
18302;SDS011;9277;37.980;23.748;2023-04-24T01:54:41;8.48;;;4.90;;
18302;SDS011;9277;37.980;23.748;2023-04-24T01:57:09;6.30;;;4.22;;
18302;SDS011;9277;37.980;23.748;2023-04-24T01:59:36;5.32;;;4.28;;
18302;SDS011;9277;37.980;23.748;2023-04-24T02:02:03;5.65;;;4.05;;
18302;SDS011;9277;37.980;23.748;2023-04-24T02:04:31;10.77;;;4.50;;
18302;SDS011;9277;37.980;23.748;2023-04-24T02:06:57;11.52;;;4.55;;
18302;SDS011;9277;37.980;23.748;2023-04-24T02:09:24;6.20;;;3.85;;
18302;SDS011;9277;37.980;23.748;2023-04-24T02:11:51;7.75;;;4.07;;
18302;SDS011;9277;37.980;23.748;2023-04-24T02:14:19;5.45;;;3.88;;
18302;SDS011;9277;37.980;23.748;2023-04-24T02:16:46;8.98;;;3.83;;
18302;SDS011;9277;37.980;23.748;2023-04-24T02:19:12;7.05;;;3.75;;
18302;SDS011;9277;37.980;23.748;2023-04-24T02:21:39;6.82;;;3.45;;
18302;SDS011;9277;37.980;23.748;2023-04-24T02:24:06;5.80;;;3.58;;
18302;SDS011;9277;37.980;23.748;2023-04-24T02:26:33;11.15;;;4.95;;
18302;SDS011;9277;37.980;23.748;2023-04-24T02:29:00;7.45;;;4.50;;
18302;SDS011;9277;37.980;23.748;2023-04-24T02:31:28;11.43;;;5.30;;
18302;SDS011;9277;37.980;23.748;2023-04-24T02:33:55;9.68;;;4.63;;
18302;SDS011;9277;37.980;23.748;2023-04-24T02:36:22;9.20;;;4.78;;
18302;SDS011;9277;37.980;23.748;2023-04-24T02:38:49;14.45;;;4.90;;
18302;SDS011;9277;37.980;23.748;2023-04-24T02:41:15;7.72;;;4.60;;
18302;SDS011;9277;37.980;23.748;2023-04-24T02:43:42;8.80;;;4.00;;
18302;SDS011;9277;37.980;23.748;2023-04-24T02:46:09;8.02;;;4.70;;
18302;SDS011;9277;37.980;23.748;2023-04-24T02:48:37;13.48;;;4.90;;
18302;SDS011;9277;37.980;23.748;2023-04-24T02:51:04;11.73;;;4.80;;
18302;SDS011;9277;37.980;23.748;2023-04-24T02:53:31;9.85;;;4.63;;
18302;SDS011;9277;37.980;23.748;2023-04-24T02:55:58;9.00;;;5.50;;
18302;SDS011;9277;37.980;23.748;2023-04-24T02:58:26;9.75;;;4.80;;
18302;SDS011;9277;37.980;23.748;2023-04-24T03:00:53;8.15;;;4.93;;
18302;SDS011;9277;37.980;23.748;2023-04-24T03:03:20;7.60;;;4.95;;
18302;SDS011;9277;37.980;23.748;2023-04-24T03:05:48;9.40;;;4.53;;
18302;SDS011;9277;37.980;23.748;2023-04-24T03:08:15;9.10;;;4.57;;
18302;SDS011;9277;37.980;23.748;2023-04-24T03:10:42;9.75;;;4.93;;
18302;SDS011;9277;37.980;23.748;2023-04-24T03:13:08;12.55;;;5.38;;
18302;SDS011;9277;37.980;23.748;2023-04-24T03:15:36;7.75;;;4.30;;
18302;SDS011;9277;37.980;23.748;2023-04-24T03:18:02;10.13;;;4.57;;
18302;SDS011;9277;37.980;23.748;2023-04-24T03:20:29;12.32;;;5.53;;
18302;SDS011;9277;37.980;23.748;2023-04-24T03:22:57;11.60;;;5.55;;
18302;SDS011;9277;37.980;23.748;2023-04-24T03:25:24;8.70;;;4.82;;
18302;SDS011;9277;37.980;23.748;2023-04-24T03:27:51;8.57;;;5.03;;
18302;SDS011;9277;37.980;23.748;2023-04-24T03:30:19;8.88;;;4.97;;
18302;SDS011;9277;37.980;23.748;2023-04-24T03:32:46;10.48;;;5.30;;
18302;SDS011;9277;37.980;23.748;2023-04-24T03:35:13;9.35;;;4.70;;
18302;SDS011;9277;37.980;23.748;2023-04-24T03:37:40;10.57;;;4.90;;
18302;SDS011;9277;37.980;23.748;2023-04-24T03:40:08;8.55;;;5.25;;
18302;SDS011;9277;37.980;23.748;2023-04-24T03:42:35;11.25;;;5.70;;
18302;SDS011;9277;37.980;23.748;2023-04-24T03:45:02;11.13;;;5.15;;
18302;SDS011;9277;37.980;23.748;2023-04-24T03:47:29;12.07;;;5.22;;
18302;SDS011;9277;37.980;23.748;2023-04-24T03:49:55;8.32;;;4.80;;
18302;SDS011;9277;37.980;23.748;2023-04-24T03:52:22;15.35;;;5.20;;
18302;SDS011;9277;37.980;23.748;2023-04-24T03:54:49;6.03;;;4.20;;
18302;SDS011;9277;37.980;23.748;2023-04-24T03:57:17;8.32;;;4.30;;
18302;SDS011;9277;37.980;23.748;2023-04-24T03:59:44;12.88;;;4.93;;
18302;SDS011;9277;37.980;23.748;2023-04-24T04:02:11;8.32;;;4.53;;
18302;SDS011;9277;37.980;23.748;2023-04-24T04:04:38;7.80;;;4.20;;
18302;SDS011;9277;37.980;23.748;2023-04-24T04:07:05;8.90;;;4.40;;
18302;SDS011;9277;37.980;23.748;2023-04-24T04:09:33;8.55;;;4.15;;
18302;SDS011;9277;37.980;23.748;2023-04-24T04:11:59;6.35;;;3.85;;
18302;SDS011;9277;37.980;23.748;2023-04-24T04:14:28;10.68;;;3.95;;
18302;SDS011;9277;37.980;23.748;2023-04-24T04:16:55;7.03;;;4.18;;
18302;SDS011;9277;37.980;23.748;2023-04-24T04:19:22;7.07;;;4.30;;
18302;SDS011;9277;37.980;23.748;2023-04-24T04:21:48;11.25;;;4.55;;
18302;SDS011;9277;37.980;23.748;2023-04-24T04:24:18;10.75;;;4.20;;
18302;SDS011;9277;37.980;23.748;2023-04-24T04:26:49;11.27;;;4.97;;
18302;SDS011;9277;37.980;23.748;2023-04-24T04:29:16;10.43;;;4.70;;
18302;SDS011;9277;37.980;23.748;2023-04-24T04:31:45;12.25;;;5.07;;
18302;SDS011;9277;37.980;23.748;2023-04-24T04:34:12;8.05;;;4.40;;
18302;SDS011;9277;37.980;23.748;2023-04-24T04:36:39;9.18;;;5.22;;
18302;SDS011;9277;37.980;23.748;2023-04-24T04:39:06;11.48;;;5.18;;
18302;SDS011;9277;37.980;23.748;2023-04-24T04:41:33;10.32;;;4.65;;
18302;SDS011;9277;37.980;23.748;2023-04-24T04:44:00;11.27;;;4.78;;
18302;SDS011;9277;37.980;23.748;2023-04-24T04:46:30;12.52;;;5.18;;
18302;SDS011;9277;37.980;23.748;2023-04-24T04:48:58;8.23;;;5.10;;
18302;SDS011;9277;37.980;23.748;2023-04-24T04:51:26;13.02;;;5.70;;
18302;SDS011;9277;37.980;23.748;2023-04-24T04:53:53;11.10;;;5.88;;
18302;SDS011;9277;37.980;23.748;2023-04-24T04:56:19;9.88;;;5.22;;
18302;SDS011;9277;37.980;23.748;2023-04-24T04:58:47;11.07;;;5.47;;
18302;SDS011;9277;37.980;23.748;2023-04-24T05:01:13;14.05;;;6.18;;
18302;SDS011;9277;37.980;23.748;2023-04-24T05:03:40;11.80;;;5.75;;
18302;SDS011;9277;37.980;23.748;2023-04-24T05:06:09;10.52;;;5.60;;
18302;SDS011;9277;37.980;23.748;2023-04-24T05:08:36;13.20;;;5.25;;
18302;SDS011;9277;37.980;23.748;2023-04-24T05:11:03;21.02;;;5.40;;
18302;SDS011;9277;37.980;23.748;2023-04-24T05:13:31;13.85;;;6.00;;
18302;SDS011;9277;37.980;23.748;2023-04-24T05:15:58;16.42;;;5.85;;
18302;SDS011;9277;37.980;23.748;2023-04-24T05:18:25;22.17;;;6.47;;
18302;SDS011;9277;37.980;23.748;2023-04-24T05:20:52;18.48;;;5.85;;
18302;SDS011;9277;37.980;23.748;2023-04-24T05:23:20;13.30;;;5.85;;
18302;SDS011;9277;37.980;23.748;2023-04-24T05:25:47;17.23;;;5.55;;
18302;SDS011;9277;37.980;23.748;2023-04-24T05:28:14;17.63;;;5.43;;
18302;SDS011;9277;37.980;23.748;2023-04-24T05:30:40;9.10;;;5.00;;
18302;SDS011;9277;37.980;23.748;2023-04-24T05:33:08;15.55;;;5.38;;
18302;SDS011;9277;37.980;23.748;2023-04-24T05:35:35;12.00;;;5.63;;
18302;SDS011;9277;37.980;23.748;2023-04-24T05:38:04;10.27;;;4.97;;
18302;SDS011;9277;37.980;23.748;2023-04-24T05:40:32;10.00;;;5.40;;
18302;SDS011;9277;37.980;23.748;2023-04-24T05:42:59;9.25;;;4.80;;
18302;SDS011;9277;37.980;23.748;2023-04-24T05:45:25;8.55;;;4.65;;
18302;SDS011;9277;37.980;23.748;2023-04-24T05:47:52;10.88;;;5.10;;
18302;SDS011;9277;37.980;23.748;2023-04-24T05:50:19;10.25;;;4.82;;
18302;SDS011;9277;37.980;23.748;2023-04-24T05:52:46;12.77;;;4.65;;
18302;SDS011;9277;37.980;23.748;2023-04-24T05:55:12;9.23;;;5.22;;
18302;SDS011;9277;37.980;23.748;2023-04-24T05:57:44;9.98;;;5.10;;
18302;SDS011;9277;37.980;23.748;2023-04-24T06:00:11;8.98;;;5.32;;
18302;SDS011;9277;37.980;23.748;2023-04-24T06:02:41;6.70;;;3.83;;
18302;SDS011;9277;37.980;23.748;2023-04-24T06:05:07;9.02;;;4.40;;
18302;SDS011;9277;37.980;23.748;2023-04-24T06:07:34;6.10;;;4.25;;
18302;SDS011;9277;37.980;23.748;2023-04-24T06:10:01;6.32;;;4.38;;
18302;SDS011;9277;37.980;23.748;2023-04-24T06:12:34;7.85;;;4.55;;
18302;SDS011;9277;37.980;23.748;2023-04-24T06:15:29;8.90;;;5.32;;
18302;SDS011;9277;37.980;23.748;2023-04-24T06:17:56;8.82;;;4.90;;
18302;SDS011;9277;37.980;23.748;2023-04-24T06:20:23;9.48;;;4.90;;
18302;SDS011;9277;37.980;23.748;2023-04-24T06:22:50;9.18;;;5.32;;
18302;SDS011;9277;37.980;23.748;2023-04-24T06:25:17;10.43;;;5.13;;
18302;SDS011;9277;37.980;23.748;2023-04-24T06:27:44;11.20;;;5.60;;
18302;SDS011;9277;37.980;23.748;2023-04-24T06:30:11;4.97;;;4.05;;
18302;SDS011;9277;37.980;23.748;2023-04-24T06:32:39;7.20;;;4.70;;
18302;SDS011;9277;37.980;23.748;2023-04-24T06:35:06;9.73;;;4.55;;
18302;SDS011;9277;37.980;23.748;2023-04-24T06:37:35;7.97;;;4.97;;
18302;SDS011;9277;37.980;23.748;2023-04-24T06:40:02;10.73;;;5.70;;
18302;SDS011;9277;37.980;23.748;2023-04-24T06:42:28;12.95;;;5.55;;
18302;SDS011;9277;37.980;23.748;2023-04-24T06:44:55;8.05;;;5.13;;
18302;SDS011;9277;37.980;23.748;2023-04-24T06:47:22;9.68;;;4.60;;
18302;SDS011;9277;37.980;23.748;2023-04-24T06:49:50;10.07;;;5.03;;
18302;SDS011;9277;37.980;23.748;2023-04-24T06:52:20;11.82;;;5.40;;
18302;SDS011;9277;37.980;23.748;2023-04-24T06:54:47;8.40;;;4.45;;
18302;SDS011;9277;37.980;23.748;2023-04-24T06:57:15;9.57;;;5.80;;
18302;SDS011;9277;37.980;23.748;2023-04-24T06:59:42;16.55;;;6.15;;
18302;SDS011;9277;37.980;23.748;2023-04-24T07:02:10;14.85;;;6.00;;
18302;SDS011;9277;37.980;23.748;2023-04-24T07:04:37;9.15;;;4.93;;
18302;SDS011;9277;37.980;23.748;2023-04-24T07:07:05;12.93;;;5.72;;
18302;SDS011;9277;37.980;23.748;2023-04-24T07:09:33;11.43;;;5.05;;
18302;SDS011;9277;37.980;23.748;2023-04-24T07:12:03;11.43;;;6.22;;
18302;SDS011;9277;37.980;23.748;2023-04-24T07:14:30;11.93;;;6.65;;
18302;SDS011;9277;37.980;23.748;2023-04-24T07:16:57;13.50;;;7.15;;
18302;SDS011;9277;37.980;23.748;2023-04-24T07:19:24;13.20;;;5.80;;
18302;SDS011;9277;37.980;23.748;2023-04-24T07:21:56;9.35;;;5.97;;
18302;SDS011;9277;37.980;23.748;2023-04-24T07:24:27;8.88;;;5.20;;
18302;SDS011;9277;37.980;23.748;2023-04-24T07:26:55;19.88;;;6.40;;
18302;SDS011;9277;37.980;23.748;2023-04-24T07:29:26;11.25;;;5.85;;
18302;SDS011;9277;37.980;23.748;2023-04-24T07:31:52;11.30;;;5.85;;
18302;SDS011;9277;37.980;23.748;2023-04-24T07:34:20;10.90;;;5.40;;
18302;SDS011;9277;37.980;23.748;2023-04-24T07:36:49;11.02;;;5.65;;
18302;SDS011;9277;37.980;23.748;2023-04-24T07:39:19;12.18;;;6.95;;
18302;SDS011;9277;37.980;23.748;2023-04-24T07:41:50;15.00;;;5.60;;
18302;SDS011;9277;37.980;23.748;2023-04-24T07:44:21;10.50;;;4.93;;
18302;SDS011;9277;37.980;23.748;2023-04-24T07:46:53;12.10;;;5.13;;
18302;SDS011;9277;37.980;23.748;2023-04-24T07:49:20;10.88;;;4.53;;
18302;SDS011;9277;37.980;23.748;2023-04-24T07:51:53;6.40;;;4.35;;
18302;SDS011;9277;37.980;23.748;2023-04-24T07:54:25;8.35;;;5.03;;
18302;SDS011;9277;37.980;23.748;2023-04-24T07:56:53;12.40;;;5.40;;
18302;SDS011;9277;37.980;23.748;2023-04-24T07:59:20;18.73;;;6.80;;
18302;SDS011;9277;37.980;23.748;2023-04-24T08:01:49;12.13;;;6.22;;
18302;SDS011;9277;37.980;23.748;2023-04-24T08:04:16;16.33;;;7.25;;
18302;SDS011;9277;37.980;23.748;2023-04-24T08:06:44;10.23;;;5.85;;
18302;SDS011;9277;37.980;23.748;2023-04-24T08:09:10;9.40;;;5.90;;
18302;SDS011;9277;37.980;23.748;2023-04-24T08:11:37;9.85;;;5.90;;
18302;SDS011;9277;37.980;23.748;2023-04-24T08:14:06;7.93;;;5.15;;
18302;SDS011;9277;37.980;23.748;2023-04-24T08:16:32;10.00;;;5.85;;
18302;SDS011;9277;37.980;23.748;2023-04-24T08:18:59;9.68;;;5.60;;
18302;SDS011;9277;37.980;23.748;2023-04-24T08:21:29;9.63;;;6.22;;
18302;SDS011;9277;37.980;23.748;2023-04-24T08:24:10;11.77;;;5.38;;
18302;SDS011;9277;37.980;23.748;2023-04-24T08:26:36;13.30;;;6.05;;
18302;SDS011;9277;37.980;23.748;2023-04-24T08:29:04;6.32;;;4.78;;
18302;SDS011;9277;37.980;23.748;2023-04-24T08:31:33;9.77;;;4.93;;
18302;SDS011;9277;37.980;23.748;2023-04-24T08:34:00;8.85;;;4.57;;
18302;SDS011;9277;37.980;23.748;2023-04-24T08:36:27;18.00;;;5.07;;
18302;SDS011;9277;37.980;23.748;2023-04-24T08:38:54;13.50;;;6.32;;
18302;SDS011;9277;37.980;23.748;2023-04-24T08:41:20;8.93;;;5.35;;
18302;SDS011;9277;37.980;23.748;2023-04-24T08:43:51;7.32;;;4.63;;
18302;SDS011;9277;37.980;23.748;2023-04-24T08:46:19;10.77;;;5.35;;
18302;SDS011;9277;37.980;23.748;2023-04-24T08:48:49;7.88;;;4.03;;
18302;SDS011;9277;37.980;23.748;2023-04-24T08:51:15;8.02;;;4.45;;
18302;SDS011;9277;37.980;23.748;2023-04-24T08:53:43;8.35;;;4.13;;
18302;SDS011;9277;37.980;23.748;2023-04-24T08:56:11;9.90;;;5.07;;
18302;SDS011;9277;37.980;23.748;2023-04-24T08:58:38;6.07;;;5.10;;
18302;SDS011;9277;37.980;23.748;2023-04-24T09:01:05;11.77;;;6.15;;
18302;SDS011;9277;37.980;23.748;2023-04-24T09:03:32;10.07;;;5.38;;
18302;SDS011;9277;37.980;23.748;2023-04-24T09:06:01;7.38;;;4.35;;
18302;SDS011;9277;37.980;23.748;2023-04-24T09:08:28;7.57;;;4.75;;
18302;SDS011;9277;37.980;23.748;2023-04-24T09:10:56;9.27;;;5.30;;
18302;SDS011;9277;37.980;23.748;2023-04-24T09:13:25;10.68;;;5.75;;
18302;SDS011;9277;37.980;23.748;2023-04-24T09:15:52;11.10;;;4.90;;
18302;SDS011;9277;37.980;23.748;2023-04-24T09:18:19;7.40;;;4.70;;
18302;SDS011;9277;37.980;23.748;2023-04-24T09:20:59;8.80;;;5.32;;
18302;SDS011;9277;37.980;23.748;2023-04-24T09:23:28;7.18;;;4.60;;
18302;SDS011;9277;37.980;23.748;2023-04-24T09:25:55;5.05;;;3.45;;
18302;SDS011;9277;37.980;23.748;2023-04-24T09:28:25;6.95;;;3.90;;
18302;SDS011;9277;37.980;23.748;2023-04-24T09:31:01;10.02;;;4.57;;
18302;SDS011;9277;37.980;23.748;2023-04-24T09:33:28;8.20;;;3.85;;
18302;SDS011;9277;37.980;23.748;2023-04-24T09:35:55;6.20;;;4.40;;
18302;SDS011;9277;37.980;23.748;2023-04-24T09:38:31;7.72;;;4.13;;
18302;SDS011;9277;37.980;23.748;2023-04-24T09:40:59;7.90;;;4.85;;
18302;SDS011;9277;37.980;23.748;2023-04-24T09:43:29;6.68;;;3.83;;
18302;SDS011;9277;37.980;23.748;2023-04-24T09:45:58;7.63;;;4.10;;
18302;SDS011;9277;37.980;23.748;2023-04-24T09:48:32;6.15;;;4.38;;
18302;SDS011;9277;37.980;23.748;2023-04-24T09:51:00;6.18;;;4.32;;
18302;SDS011;9277;37.980;23.748;2023-04-24T09:53:28;7.85;;;4.95;;
18302;SDS011;9277;37.980;23.748;2023-04-24T09:55:56;10.10;;;5.05;;
18302;SDS011;9277;37.980;23.748;2023-04-24T09:58:28;7.45;;;4.30;;
18302;SDS011;9277;37.980;23.748;2023-04-24T10:00:56;6.30;;;4.18;;
18302;SDS011;9277;37.980;23.748;2023-04-24T10:03:23;7.25;;;4.15;;
18302;SDS011;9277;37.980;23.748;2023-04-24T10:05:51;7.75;;;5.38;;
18302;SDS011;9277;37.980;23.748;2023-04-24T10:08:18;5.72;;;4.60;;
18302;SDS011;9277;37.980;23.748;2023-04-24T10:10:45;5.78;;;4.13;;
18302;SDS011;9277;37.980;23.748;2023-04-24T10:13:14;8.07;;;5.03;;
18302;SDS011;9277;37.980;23.748;2023-04-24T10:15:41;7.18;;;5.22;;
18302;SDS011;9277;37.980;23.748;2023-04-24T10:18:10;11.68;;;5.07;;
18302;SDS011;9277;37.980;23.748;2023-04-24T10:20:38;7.70;;;4.93;;
18302;SDS011;9277;37.980;23.748;2023-04-24T10:23:05;9.48;;;5.22;;
18302;SDS011;9277;37.980;23.748;2023-04-24T10:25:32;10.73;;;4.72;;
18302;SDS011;9277;37.980;23.748;2023-04-24T10:28:00;8.57;;;4.90;;
18302;SDS011;9277;37.980;23.748;2023-04-24T10:30:32;7.60;;;4.50;;
18302;SDS011;9277;37.980;23.748;2023-04-24T10:33:06;10.20;;;4.63;;
18302;SDS011;9277;37.980;23.748;2023-04-24T10:35:34;7.90;;;4.30;;
18302;SDS011;9277;37.980;23.748;2023-04-24T10:38:03;7.50;;;4.88;;
18302;SDS011;9277;37.980;23.748;2023-04-24T10:40:30;7.65;;;4.70;;
18302;SDS011;9277;37.980;23.748;2023-04-24T10:42:57;6.90;;;4.30;;
18302;SDS011;9277;37.980;23.748;2023-04-24T10:45:24;8.73;;;4.20;;
18302;SDS011;9277;37.980;23.748;2023-04-24T10:47:54;7.07;;;4.28;;
18302;SDS011;9277;37.980;23.748;2023-04-24T10:50:22;8.45;;;4.20;;
18302;SDS011;9277;37.980;23.748;2023-04-24T10:52:49;7.40;;;4.72;;
18302;SDS011;9277;37.980;23.748;2023-04-24T10:58:02;5.25;;;3.83;;
18302;SDS011;9277;37.980;23.748;2023-04-24T11:00:31;9.15;;;3.97;;
18302;SDS011;9277;37.980;23.748;2023-04-24T11:02:59;4.97;;;3.80;;
18302;SDS011;9277;37.980;23.748;2023-04-24T11:05:49;23.30;;;4.57;;
18302;SDS011;9277;37.980;23.748;2023-04-24T11:08:21;6.00;;;3.45;;
18302;SDS011;9277;37.980;23.748;2023-04-24T11:10:54;5.82;;;3.92;;
18302;SDS011;9277;37.980;23.748;2023-04-24T11:16:34;11.38;;;3.72;;
18302;SDS011;9277;37.980;23.748;2023-04-24T11:19:05;7.65;;;4.22;;
18302;SDS011;9277;37.980;23.748;2023-04-24T11:21:38;9.02;;;4.30;;
18302;SDS011;9277;37.980;23.748;2023-04-24T11:24:24;8.30;;;4.55;;
18302;SDS011;9277;37.980;23.748;2023-04-24T11:26:51;4.53;;;3.58;;
18302;SDS011;9277;37.980;23.748;2023-04-24T11:29:19;6.15;;;4.78;;
18302;SDS011;9277;37.980;23.748;2023-04-24T11:31:46;8.18;;;4.00;;
18302;SDS011;9277;37.980;23.748;2023-04-24T11:37:07;8.02;;;4.47;;
18302;SDS011;9277;37.980;23.748;2023-04-24T11:39:36;15.45;;;4.00;;
18302;SDS011;9277;37.980;23.748;2023-04-24T11:42:03;9.55;;;4.55;;
18302;SDS011;9277;37.980;23.748;2023-04-24T11:44:31;8.75;;;3.78;;
18302;SDS011;9277;37.980;23.748;2023-04-24T11:47:00;6.00;;;3.83;;
18302;SDS011;9277;37.980;23.748;2023-04-24T11:49:27;4.13;;;3.70;;
18302;SDS011;9277;37.980;23.748;2023-04-24T11:51:54;11.10;;;3.95;;
18302;SDS011;9277;37.980;23.748;2023-04-24T11:54:23;5.43;;;3.60;;
18302;SDS011;9277;37.980;23.748;2023-04-24T11:56:49;5.75;;;3.63;;
18302;SDS011;9277;37.980;23.748;2023-04-24T11:59:16;8.90;;;4.13;;
18302;SDS011;9277;37.980;23.748;2023-04-24T12:01:43;6.90;;;4.05;;
18302;SDS011;9277;37.980;23.748;2023-04-24T12:04:11;8.07;;;3.67;;
18302;SDS011;9277;37.980;23.748;2023-04-24T12:06:38;5.82;;;4.10;;
18302;SDS011;9277;37.980;23.748;2023-04-24T12:09:05;8.07;;;3.72;;
18302;SDS011;9277;37.980;23.748;2023-04-24T12:11:35;5.10;;;3.30;;
18302;SDS011;9277;37.980;23.748;2023-04-24T12:14:09;6.25;;;3.67;;
18302;SDS011;9277;37.980;23.748;2023-04-24T12:16:36;9.98;;;4.10;;
18302;SDS011;9277;37.980;23.748;2023-04-24T12:19:04;6.30;;;3.78;;
18302;SDS011;9277;37.980;23.748;2023-04-24T12:21:41;4.57;;;3.78;;
18302;SDS011;9277;37.980;23.748;2023-04-24T12:24:14;5.93;;;3.80;;
18302;SDS011;9277;37.980;23.748;2023-04-24T12:29:25;3.90;;;3.22;;
18302;SDS011;9277;37.980;23.748;2023-04-24T12:31:51;7.20;;;3.67;;
18302;SDS011;9277;37.980;23.748;2023-04-24T12:34:18;4.35;;;3.20;;
18302;SDS011;9277;37.980;23.748;2023-04-24T12:36:45;8.55;;;3.72;;
18302;SDS011;9277;37.980;23.748;2023-04-24T12:39:15;9.98;;;3.38;;
18302;SDS011;9277;37.980;23.748;2023-04-24T12:41:50;5.95;;;3.30;;
18302;SDS011;9277;37.980;23.748;2023-04-24T12:44:19;5.63;;;3.03;;
18302;SDS011;9277;37.980;23.748;2023-04-24T12:46:47;7.38;;;3.40;;
18302;SDS011;9277;37.980;23.748;2023-04-24T12:49:16;4.80;;;3.42;;
18302;SDS011;9277;37.980;23.748;2023-04-24T12:51:43;6.10;;;3.00;;
18302;SDS011;9277;37.980;23.748;2023-04-24T12:54:10;6.07;;;3.33;;
18302;SDS011;9277;37.980;23.748;2023-04-24T12:56:37;8.23;;;3.42;;
18302;SDS011;9277;37.980;23.748;2023-04-24T12:59:04;6.90;;;3.33;;
18302;SDS011;9277;37.980;23.748;2023-04-24T13:01:31;4.43;;;3.20;;
18302;SDS011;9277;37.980;23.748;2023-04-24T13:04:01;7.13;;;3.33;;
18302;SDS011;9277;37.980;23.748;2023-04-24T13:06:28;6.85;;;3.65;;
18302;SDS011;9277;37.980;23.748;2023-04-24T13:08:56;4.80;;;3.30;;
18302;SDS011;9277;37.980;23.748;2023-04-24T13:11:23;3.42;;;2.90;;
18302;SDS011;9277;37.980;23.748;2023-04-24T13:13:50;5.35;;;3.25;;
18302;SDS011;9277;37.980;23.748;2023-04-24T13:16:19;7.03;;;3.45;;
18302;SDS011;9277;37.980;23.748;2023-04-24T13:18:45;6.28;;;3.38;;
18302;SDS011;9277;37.980;23.748;2023-04-24T13:21:14;6.18;;;3.10;;
18302;SDS011;9277;37.980;23.748;2023-04-24T13:23:40;8.32;;;3.28;;
18302;SDS011;9277;37.980;23.748;2023-04-24T13:26:07;6.65;;;2.95;;
18302;SDS011;9277;37.980;23.748;2023-04-24T13:28:36;8.77;;;4.38;;
18302;SDS011;9277;37.980;23.748;2023-04-24T13:31:03;10.85;;;3.90;;
18302;SDS011;9277;37.980;23.748;2023-04-24T13:33:31;6.32;;;3.58;;
18302;SDS011;9277;37.980;23.748;2023-04-24T13:35:58;5.30;;;3.42;;
18302;SDS011;9277;37.980;23.748;2023-04-24T13:38:28;7.05;;;3.20;;
18302;SDS011;9277;37.980;23.748;2023-04-24T13:40:55;4.00;;;2.70;;
18302;SDS011;9277;37.980;23.748;2023-04-24T13:43:22;7.93;;;3.05;;
18302;SDS011;9277;37.980;23.748;2023-04-24T13:45:55;3.40;;;2.97;;
18302;SDS011;9277;37.980;23.748;2023-04-24T13:48:28;3.33;;;2.70;;
18302;SDS011;9277;37.980;23.748;2023-04-24T13:50:56;3.97;;;3.08;;
18302;SDS011;9277;37.980;23.748;2023-04-24T13:53:27;6.20;;;3.08;;
18302;SDS011;9277;37.980;23.748;2023-04-24T13:55:54;3.88;;;3.17;;
18302;SDS011;9277;37.980;23.748;2023-04-24T13:58:23;4.70;;;3.08;;
18302;SDS011;9277;37.980;23.748;2023-04-24T14:00:50;6.90;;;3.65;;
18302;SDS011;9277;37.980;23.748;2023-04-24T14:03:24;4.28;;;3.25;;
18302;SDS011;9277;37.980;23.748;2023-04-24T14:05:51;3.75;;;3.08;;
18302;SDS011;9277;37.980;23.748;2023-04-24T14:08:20;5.15;;;2.75;;
18302;SDS011;9277;37.980;23.748;2023-04-24T14:10:48;4.55;;;2.75;;
18302;SDS011;9277;37.980;23.748;2023-04-24T14:13:15;6.63;;;3.05;;
18302;SDS011;9277;37.980;23.748;2023-04-24T14:15:42;6.78;;;3.03;;
18302;SDS011;9277;37.980;23.748;2023-04-24T14:18:09;3.50;;;3.20;;
18302;SDS011;9277;37.980;23.748;2023-04-24T14:20:36;4.32;;;3.13;;
18302;SDS011;9277;37.980;23.748;2023-04-24T14:23:05;3.25;;;2.72;;
18302;SDS011;9277;37.980;23.748;2023-04-24T14:25:38;3.50;;;3.00;;
18302;SDS011;9277;37.980;23.748;2023-04-24T14:30:52;3.08;;;2.78;;
18302;SDS011;9277;37.980;23.748;2023-04-24T14:33:19;7.45;;;3.58;;
18302;SDS011;9277;37.980;23.748;2023-04-24T14:35:46;6.70;;;3.17;;
18302;SDS011;9277;37.980;23.748;2023-04-24T14:38:12;3.67;;;3.15;;
18302;SDS011;9277;37.980;23.748;2023-04-24T14:40:40;4.22;;;2.83;;
18302;SDS011;9277;37.980;23.748;2023-04-24T14:43:07;4.72;;;3.13;;
18302;SDS011;9277;37.980;23.748;2023-04-24T14:45:34;7.20;;;3.70;;
18302;SDS011;9277;37.980;23.748;2023-04-24T14:48:02;4.30;;;3.25;;
18302;SDS011;9277;37.980;23.748;2023-04-24T14:50:29;5.82;;;3.20;;
18302;SDS011;9277;37.980;23.748;2023-04-24T14:52:55;3.95;;;3.47;;
18302;SDS011;9277;37.980;23.748;2023-04-24T14:55:23;5.35;;;3.00;;
18302;SDS011;9277;37.980;23.748;2023-04-24T14:57:51;5.63;;;3.03;;
18302;SDS011;9277;37.980;23.748;2023-04-24T15:00:19;5.07;;;3.08;;
18302;SDS011;9277;37.980;23.748;2023-04-24T15:02:45;7.22;;;3.38;;